Terminal Aerodrome Forecast
Issued by NWS

Home | Current Version | Previous Version | Text Only | Print | Product List | Glossary On
Versions: 1 2 3 4 5 6 7 8 9 10 11 12 13 14 15 16 17 18 19 20
317
FTUS44 KLUB 012320
TAFCDS
TAF
KCDS 012320Z 0200/0224 36016KT P6SM OVC040
     FM021100 34007KT P6SM SCT020
     FM021500 36011KT P6SM SCT140=

USA.gov is the U.S. government's official web portal to all federal, state and local government web resources and services.